Terminal Aerodrome Forecast
Issued by NWS

Home | Current Version | Previous Version | Graphics & Text | Print | Product List | Glossary On
Versions: 1 2 3 4 5 6 7 8 9 10 11 12 13 14 15 16 17 18 19 20 21 22 23 24 25
000
FTUS43 KPAH 211654 AAA
TAFCGI
TAF AMD
KCGI 211654Z 2117/2212 07006KT P6SM SCT025 OVC040
     FM212100 06004KT P6SM OVC015
     FM220400 00000KT 4SM BR OVC010
      TEMPO 2209/2212 2SM BR OVC008=

USA.gov is the U.S. government's official web portal to all federal, state and local government web resources and services.